Flight Track Log - Related Links

Times and Time Zones

All times are in EDT time to prevent confusion due to time zone crossing. See the ASQ4366 flight status page for this flight to view local times or setup timezone preferences in your user account.

Time Position Orientation Groundspeed Altitude Reporting Facility
EDT Latitude Longitude Course Direction KTS MPH feet Rate Location/Type
Sat 09:04:14 AM 29.9450 -95.3456 35° Northeast 194 223 700  Level Houston Center
Sat 09:05:15 AM 29.9717 -95.3617 332° Northwest 220 253 2,800 1,611 Climbing Houston Center
Sat 09:06:02 AM 30.0108 -95.3358 30° Northeast 246 283 3,600 1,556 Climbing Houston Center
Sat 09:07:00 AM 30.3559 -95.0353 35° Northeast  Level FlightAware Approximate
Sat 09:07:03 AM 30.0750 -95.2892 32° Northeast 261 300 5,600  Level Houston Center
Sat 09:08:00 AM 30.4455 -94.9545 41° Northeast  Level FlightAware Approximate
Sat 09:08:04 AM 30.1350 -95.2386 36° Northeast 271 312 7,800  Level Houston Center
Sat 09:09:00 AM 30.5417 -94.8900 35° Northeast  Level FlightAware Approximate
Sat 09:09:06 AM 30.1956 -95.1894 35° Northeast 267 307 9,900  Level Houston Center
Sat 09:10:07 AM 30.2683 -95.1292 36° Northeast 266 306 11,300 1,073 Climbing Houston Center
Sat 09:11:09 AM 30.3378 -95.0719 35° Northeast 295 339 12,100 1,122 Climbing Houston Center
Sat 09:12:10 AM 30.4086 -95.0136 35° Northeast 310 357 13,600 1,512 Climbing Houston Center
Sat 09:13:12 AM 30.4772 -94.9553 36° Northeast 304 350 15,200 1,415 Climbing Houston Center
Sat 09:14:13 AM 30.5467 -94.8964 36° Northeast 306 352 16,500 1,279 Climbing Houston Center
Sat 09:15:14 AM 30.6183 -94.8422 33° Northeast 308 354 17,800 1,268 Climbing Houston Center
Sat 09:16:16 AM 30.6914 -94.7856 34° Northeast 312 359 19,100 1,220 Climbing Houston Center
Sat 09:17:17 AM 30.7664 -94.7283 33° Northeast 319 367 20,300 1,317 Climbing Houston Center
Sat 09:18:19 AM 30.8569 -94.6572 34° Northeast 327 376 21,800 1,366 Climbing Houston Center
Sat 09:19:20 AM 30.9333 -94.5986 33° Northeast 329 379 23,100 1,220 Climbing Houston Center
Sat 09:20:22 AM 31.0092 -94.5389 34° Northeast 331 381 24,300 1,171 Climbing Houston Center
Sat 09:21:23 AM 31.0844 -94.4811 33° Northeast 328 377 25,500 1,180 Climbing Houston Center
Sat 09:22:24 AM 31.1594 -94.4231 34° Northeast 326 375 26,700 1,122 Climbing Houston Center
Sat 09:23:26 AM 31.2353 -94.3636 34° Northeast 330 380 27,800 1,024 Climbing Houston Center
Sat 09:24:27 AM 31.3133 -94.3028 34° Northeast 336 387 28,800 1,122 Climbing Houston Center
Sat 09:25:29 AM 31.4078 -94.2297 33° Northeast 340 391 30,100 1,122 Climbing Houston Center
Sat 09:26:30 AM 31.4869 -94.1678 34° Northeast 341 392 31,100 1,033 Climbing Houston Center
Sat 09:27:31 AM 31.5664 -94.1058 34° Northeast 342 394 32,200 1,024 Climbing Houston Center
Sat 09:28:33 AM 31.6453 -94.0428 34° Northeast 344 396 33,200 829 Climbing Houston Center
Sat 09:29:34 AM 31.7186 -93.9708 40° Northeast 345 397 33,900 634 Climbing Houston Center
Sat 09:30:36 AM 31.7683 -93.8672 61° Northeast 362 417 34,500 537 Climbing Houston Center
Sat 09:31:37 AM 31.8214 -93.7608 60° Northeast 370 426 35,000 244 Climbing Houston Center
Sat 09:32:39 AM 31.8756 -93.6500 60° Northeast 388 447 35,000  Level Houston Center
Sat 09:33:40 AM 31.9336 -93.5322 60° Northeast 412 474 35,000  Level Houston Center
Sat 09:35:54 AM 32.0833 -93.2281 60° Northeast 438 504 35,000  Level Fort Worth Center
Sat 09:36:54 AM 32.1478 -93.0975 60° Northeast 454 522 35,000  Level Fort Worth Center
Sat 09:37:54 AM 32.2119 -92.9619 61° Northeast 460 529 35,000  Level Fort Worth Center
Sat 09:38:54 AM 32.2592 -92.8197 69° East 460 529 35,000  Level Fort Worth Center
Sat 09:39:54 AM 32.3039 -92.6772 70° East 452 520 35,000  Level Fort Worth Center
Sat 09:40:54 AM 32.3464 -92.5325 71° East 457 526 35,000  Level Fort Worth Center
Sat 09:41:54 AM 32.3928 -92.3872 69° East 457 526 35,000  Level Fort Worth Center
Sat 09:43:26 AM 32.4586 -92.1669 70° East 461 531 35,000  Level Memphis Center
Sat 09:44:26 AM 32.5000 -92.0272 71° East 455 524 35,000  Level Memphis Center
Sat 09:45:26 AM 32.5394 -91.8828 72° East 455 524 35,000  Level Memphis Center
Sat 09:46:26 AM 32.5808 -91.7356 72° East 455 524 35,000  Level Memphis Center
Sat 09:47:26 AM 32.6261 -91.5931 69° East 455 524 35,000  Level Memphis Center
Sat 09:48:26 AM 32.6653 -91.4481 72° East 455 524 35,000  Level Memphis Center
Sat 09:49:26 AM 32.7017 -91.3028 73° East 460 529 35,000  Level Memphis Center
Sat 09:50:26 AM 32.7319 -91.1697 75° East 460 529 35,000  Level Memphis Center
Sat 09:51:26 AM 32.7661 -91.0194 75° East 460 529 35,000  Level Memphis Center
Sat 09:52:26 AM 32.8025 -90.8739 73° East 454 522 35,000  Level Memphis Center
Sat 09:53:26 AM 32.8364 -90.7233 75° East 454 522 35,000  Level Memphis Center
Sat 09:54:26 AM 32.8722 -90.5750 74° East 454 522 35,000  Level Memphis Center
Sat 09:55:26 AM 32.9078 -90.4242 74° East 454 522 35,000  Level Memphis Center
Sat 09:56:27 AM 32.9433 -90.2781 74° East 459 528 35,000  Level Memphis Center
Sat 09:57:26 AM 32.9786 -90.1269 74° East 459 528 35,000 -202 Level Memphis Center
Sat 09:58:26 AM 33.0158 -89.9781 73° East 459 528 34,600 -700 Descending Memphis Center
Sat 09:59:26 AM 33.0547 -89.8044 75° East 472 543 33,600 -1,150 Descending Memphis Center
Sat 10:00:26 AM 33.0875 -89.6481 76° East 477 549 32,300 -1,350 Descending Memphis Center
Sat 10:01:26 AM 33.1219 -89.4942 75° East 477 549 30,900 -1,450 Descending Memphis Center
Sat 10:02:26 AM 33.1542 -89.3447 76° East 471 542 29,400 -1,450 Descending Memphis Center
Sat 10:03:26 AM 33.1864 -89.1981 75° East 466 536 28,000 -1,400 Descending Memphis Center
Sat 10:04:26 AM 33.2203 -89.0511 75° East 461 531 26,600 -1,450 Descending Memphis Center
Sat 10:05:26 AM 33.2522 -88.9064 75° East 453 521 25,100 -1,450 Descending Memphis Center
Sat 10:06:26 AM 33.2836 -88.7644 75° East 453 521 23,700 -1,050 Descending Memphis Center
Sat 10:07:26 AM 33.3131 -88.6222 76° East 453 521 23,000 -350 Descending Memphis Center
Sat 10:08:26 AM 33.3444 -88.4797 75° East 448 516 23,000  Level Memphis Center
Sat 10:09:26 AM 33.3717 -88.3472 76° East 442 509 23,000 -1,426 Level Memphis Center
Sat 10:12:09 AM 33.4519 -87.9625 76° East 436 502 17,700 -2,099 Descending Atlanta Center
Sat 10:13:09 AM 33.4769 -87.8317 77° East 423 487 15,200 -2,532 Descending Atlanta Center
Sat 10:13:58 AM 33.5036 -87.7133 75° East 396 456 13,100 -2,050 Descending Atlanta Center
Sat 10:15:09 AM 33.5325 -87.5775 76° East 395 455 11,100 -992 Descending Atlanta Center
Sat 10:16:05 AM 33.5569 -87.4514 77° East 391 450 11,000 -216 Descending Atlanta Center
Sat 10:17:00 AM 33.5764 -87.3500 77° East 318 366 10,700 -1,266 Descending Atlanta Center
Sat 10:18:13 AM 33.6006 -87.2286 77° East 298 343 8,300 -1,721 Descending Atlanta Center
Sat 10:19:09 AM 33.6172 -87.1469 76° East 302 348 7,000 -1,655 Descending Atlanta Center
Sat 10:20:09 AM 33.6342 -87.0503 78° East 296 341 5,100 -1,700 Descending Atlanta Center
Sat 10:21:09 AM 33.6511 -86.9586 77° East 291 335 3,600 -1,050 Descending Atlanta Center
Sat 10:22:09 AM 33.6697 -86.8744 75° East 270 311 3,000 -259 Descending Atlanta Center
Sat 10:23:28 AM 33.6931 -86.7628 76° East 255 293 3,000  Level Atlanta Center
Sat 10:24:28 AM 33.7139 -86.6786 73° East 261 300 3,000 55 Level Atlanta Center
Sat 10:25:17 AM 33.7153 -86.6136 89° East 266 306 3,100 122 Climbing Atlanta Center

Login

Don't have an account? Register now (free) for customized features, flight alerts, and more!